Arlee, Montana
Current Conditions -  °F | °C
As of 10:53 PM on Thursday 18 Dec 2014 (Local Time) from KMSO Reporting Station
Overcast Overcast  
Wind Chill: -1°   Ceiling: 6500
Heat Index: -1°   Visibility: 9mi
Dew Point: -2°   Wind: 0mph
Humidity: 92%   Direction: NA
Pressure: 30.02"   Gusts: NA
Location:  47.16°N, 114.09°W
Report Text: KMSO 190553Z AUTO 00000KT 9SM BKN065 OVC110 M01/M02 A3002 RMK AO2 SLP196 60000 T10111022 10000 21017 55002
Loading
Personal Weather Stations






























Interactive Weather Map New forecast layout! Learn more

10-Day Weather Forecast

Advertisements
Track Severe Weather on mobile